Welcome to Northern Hawkes Bay. New Zealand.
PWS Header
      nz Flag



Hit Counter


W3C Valid W3C Valid logo


    Wairoa

Select any of the Stations below to visit their websites.










Historic Data from Weather Underground
Select the location of interest below. Wairoa is the default. Please have patience, this Data is slow to load in.
Northern Hawkes Bay Historical Data
Daily Summary for March 26, 2017 Units:  English    Metric   Both
« Previous Day
Next Day »
Daily Weekly Monthly Yearly Custom
  High: Low: Average:
Temperature: 70 °F 59.7 °F 63.9 °F
Dew Point: 66.6 °F 59.2 °F 62.4 °F
Humidity: 99% 84% 95%
Wind Speed: 6.9mph 0mph 1.4mph
Wind Gust: 11.4mph - -
Wind- - SSE
Pressure: 30 in 29.8 in -
Precipitation: 0.57 in    
Historical Graphs
 
 
Tabular Data for March 26, 2017
Time Temperature Dew Point Pressure Wind Wind Speed Wind Gust Humidity Rainfall Rate (Hourly) solar
00:04 67.8 °F 63.5 °F 30 in ENE 5.4 mph 7.6 mph 86% 0 in 111 W/m2
00:10 67.5 °F 63.5 °F 30 in NE 2.2 mph 9.8 mph 87% 0 in 119 W/m2
00:16 67.3 °F 63.7 °F 30 in ENE 2.2 mph 9.8 mph 88% 0 in 107 W/m2
00:22 67.1 °F 63.5 °F 30 in ENE 2.2 mph 9.2 mph 88% 0 in 95 W/m2
00:28 66.7 °F 63.1 °F 30 in NE 3.8 mph 9.2 mph 88% 0 in 96 W/m2
00:34 66.7 °F 63.3 °F 30 in NE 3.8 mph 9.2 mph 89% 0 in 92 W/m2
00:40 66.7 °F 63.3 °F 30 in ENE 2.2 mph 7.6 mph 89% 0 in 80 W/m2
00:46 66.6 °F 63.7 °F 30 in East 4.5 mph 6.9 mph 90% 0 in 74 W/m2
00:52 66.6 °F 63.7 °F 30 in East 3.8 mph 6 mph 90% 0 in 59 W/m2
00:58 66.6 °F 63.9 °F 30 in ENE 2.2 mph 7.6 mph 91% 0 in 62 W/m2
01:04 66.4 °F 63.7 °F 30 in East 3.1 mph 6 mph 91% 0 in 59 W/m2
01:10 66.4 °F 63.7 °F 30 in East 3.8 mph 7.6 mph 91% 0 in 46 W/m2
01:16 66.4 °F 63.7 °F 30 in ENE 5.4 mph 8.3 mph 91% 0 in 51 W/m2
01:22 66.4 °F 63.7 °F 30 in ENE 5.4 mph 8.3 mph 91% 0 in 50 W/m2
01:28 66.4 °F 63.7 °F 30 in ENE 3.8 mph 7.6 mph 91% 0 in 38 W/m2
01:34 66.2 °F 63.5 °F 30 in ENE 3.8 mph 6.9 mph 91% 0 in 32 W/m2
01:40 66.2 °F 63.5 °F 30 in ENE 3.1 mph 6.9 mph 91% 0 in 23 W/m2
01:46 66.2 °F 63.5 °F 30 in ENE 0.7 mph 6 mph 91% 0 in 17 W/m2
01:52 66.2 °F 63.5 °F 30 in ENE 1.6 mph 4.5 mph 91% 0 in 13 W/m2
01:58 66.2 °F 63.1 °F 30 in ENE 2.2 mph 4.5 mph 90% 0 in 8 W/m2
02:04 66 °F 63.3 °F 30 in East 3.8 mph 5.4 mph 91% 0 in 6 W/m2
02:10 66 °F 63.3 °F 30 in East 3.8 mph 7.6 mph 91% 0 in 2 W/m2
02:16 66 °F 63.3 °F 30 in East 6 mph 8.3 mph 91% 0 in 0 W/m2
02:22 65.8 °F 62.8 °F 30 in ENE 5.4 mph 8.3 mph 90% 0 in 0 W/m2
02:28 65.8 °F 62.8 °F 30 in ENE 6.9 mph 9.2 mph 90% 0 in 0 W/m2
02:34 65.5 °F 62.8 °F 30 in ENE 3.8 mph 11.4 mph 91% 0 in 0 W/m2
02:40 65.3 °F 62.6 °F 30 in ENE 4.5 mph 10.7 mph 91% 0 in 0 W/m2
02:46 65.3 °F 62.6 °F 30 in NE 4.5 mph 10.7 mph 91% 0 in 0 W/m2
02:52 65.3 °F 63 °F 30 in ENE 5.4 mph 9.2 mph 92% 0 in 0 W/m2
02:58 65.3 °F 63 °F 30 in ENE 3.8 mph 8.3 mph 92% 0 in 0 W/m2
03:04 65.5 °F 63.1 °F 30 in ENE 3.8 mph 9.2 mph 92% 0 in 0 W/m2
03:10 65.5 °F 63.1 °F 30 in NE 3.1 mph 9.8 mph 92% 0 in 0 W/m2
03:16 65.5 °F 63.1 °F 30 in NE 6.9 mph 9.8 mph 92% 0 in 0 W/m2
03:22 65.8 °F 63.1 °F 30 in NE 3.8 mph 8.3 mph 91% 0 in 0 W/m2
03:28 65.7 °F 63 °F 30 in NE 4.5 mph 6 mph 91% 0 in 0 W/m2
03:34 65.7 °F 63 °F 30 in NE 1.6 mph 6 mph 91% 0 in 0 W/m2
03:40 65.5 °F 62.8 °F 30 in ENE 2.2 mph 5.4 mph 91% 0 in 0 W/m2
03:46 65.5 °F 62.8 °F 30 in Calm   4.5 mph 91% 0 in 0 W/m2
03:52 65.3 °F 63 °F 30 in Calm   3.1 mph 92% 0 in 0 W/m2
03:58 65.1 °F 62.8 °F 30 in NW 0.7 mph 3.1 mph 92% 0 in 0 W/m2
04:04 65.1 °F 62.8 °F 30 in Calm   3.1 mph 92% 0 in 0 W/m2
04:10 64.9 °F 62.6 °F 30 in Calm   1.6 mph 92% 0 in 0 W/m2
04:16 64.8 °F 62.8 °F 30 in Calm     93% 0 in 0 W/m2
04:22 64.6 °F 62.4 °F 30 in ENE 0.7 mph 2.2 mph 93% 0 in 0 W/m2
04:28 64.4 °F 62.4 °F 30 in Calm   2.2 mph 93% 0 in 0 W/m2
04:50 64.6 °F 62.8 °F 30 in NE 2.2 mph 4.5 mph 94% 0 in 0 W/m2
04:56 64.2 °F 61.9 °F 30 in NE 0.7 mph 3.8 mph 92% 0 in 0 W/m2
05:02 64 °F 61.7 °F 30 in NE 0.7 mph 2.2 mph 92% 0 in 0 W/m2
05:08 63.9 °F 61.9 °F 30 in NE 3.1 mph 3.8 mph 93% 0 in 0 W/m2
05:14 63.9 °F 61.9 °F 30 in NE 2.2 mph 3.8 mph 93% 0 in 0 W/m2
05:20 63.9 °F 61.9 °F 30 in Calm   3.8 mph 93% 0 in 0 W/m2
05:26 63.7 °F 61.5 °F 30 in Calm   0.7 mph 93% 0 in 0 W/m2
05:32 63.5 °F 61.5 °F 30 in Calm     93% 0 in 0 W/m2
05:38 63.1 °F 61.2 °F 30 in Calm     93% 0 in 0 W/m2
05:44 63.1 °F 61.2 °F 30 in Calm     93% 0 in 0 W/m2
05:50 63 °F 61 °F 30 in NW 0.7 mph 2.2 mph 93% 0 in 0 W/m2
05:56 62.8 °F 60.6 °F 30 in Calm   2.2 mph 93% 0 in 0 W/m2
06:02 62.6 °F 60.6 °F 30 in Calm   1.6 mph 93% 0 in 0 W/m2
06:08 62.4 °F 60.6 °F 30 in Calm     94% 0 in 0 W/m2
06:14 62.6 °F 61 °F 30 in Calm   2.2 mph 94% 0 in 0 W/m2
06:20 62.8 °F 61 °F 30 in Calm   2.2 mph 94% 0 in 0 W/m2
06:26 62.8 °F 61 °F 30 in Calm     94% 0 in 0 W/m2
06:32 63 °F 61.2 °F 30 in Calm     94% 0 in 0 W/m2
06:38 62.8 °F 61 °F 30 in Calm     94% 0 in 0 W/m2
06:44 63 °F 61.5 °F 30 in South 1.6 mph 3.1 mph 95% 0 in 0 W/m2
06:50 63.1 °F 61.7 °F 30 in Calm   3.1 mph 95% 0 in 0 W/m2
06:56 63.3 °F 61.9 °F 30 in Calm   3.8 mph 95% 0 in 0 W/m2
07:02 63.5 °F 62.1 °F 30 in Calm   3.8 mph 95% 0 in 0 W/m2
07:08 63.7 °F 62.2 °F 30 in Calm   0.7 mph 95% 0 in 0 W/m2
07:14 63.7 °F 62.2 °F 30 in Calm     95% 0 in 0 W/m2
07:20 63.9 °F 62.4 °F 30 in Calm     95% 0 in 0 W/m2
07:26 63.9 °F 62.4 °F 30 in Calm     95% 0 in 0 W/m2
07:32 63.7 °F 61.9 °F 30 in Calm     94% 0 in 0 W/m2
07:38 63.9 °F 62.1 °F 30 in ENE 1.6 mph 2.2 mph 94% 0 in 0 W/m2
07:44 63.9 °F 62.1 °F 29.9 in ENE 0.7 mph 3.1 mph 94% 0 in 0 W/m2
07:50 63.7 °F 61.9 °F 29.9 in Calm   3.1 mph 94% 0 in 0 W/m2
07:56 63.1 °F 61.3 °F 29.9 in Calm   0.7 mph 94% 0 in 0 W/m2
08:02 62.8 °F 60.6 °F 29.9 in Calm     93% 0 in 0 W/m2
08:08 62.6 °F 60.6 °F 29.9 in Calm     93% 0 in 0 W/m2
08:14 62.2 °F 60.8 °F 29.9 in Calm     95% 0 in 0 W/m2
08:20 62.1 °F 60.6 °F 29.9 in Calm     95% 0 in 0 W/m2
08:26 61.7 °F 60.3 °F 29.9 in Calm     95% 0 in 0 W/m2
08:32 61.5 °F 60.1 °F 29.9 in Calm     95% 0 in 0 W/m2
08:38 61.2 °F 59.7 °F 29.9 in Calm     95% 0 in 0 W/m2
08:44 61 °F 59.5 °F 29.9 in Calm     95% 0 in 0 W/m2
08:50 60.8 °F 59.4 °F 29.9 in Calm     95% 0 in 0 W/m2
08:56 61 °F 59.7 °F 29.9 in Calm     96% 0 in 0 W/m2
09:02 61 °F 59.7 °F 29.9 in Calm     96% 0 in 0 W/m2
09:08 60.6 °F 59.7 °F 29.9 in Calm     97% 0 in 0 W/m2
09:14 60.4 °F 59.5 °F 29.9 in Calm     97% 0 in 0 W/m2
09:20 60.3 °F 59.4 °F 29.9 in Calm     97% 0 in 0 W/m2
09:26 60.3 °F 59.7 °F 29.9 in NW 2.2 mph 3.8 mph 98% 0 in 0 W/m2
09:32 60.1 °F 59.5 °F 29.9 in Calm   3.8 mph 98% 0 in 0 W/m2
09:38 60.1 °F 59.5 °F 29.9 in NE 0.7 mph 2.2 mph 98% 0 in 0 W/m2
09:44 59.7 °F 59.2 °F 29.9 in Calm   1.6 mph 98% 0 in 0 W/m2
09:50 59.9 °F 59.5 °F 29.9 in Calm   0.7 mph 99% 0 in 0 W/m2
09:56 59.9 °F 59.5 °F 29.9 in Calm     99% 0 in 0 W/m2
10:02 60.1 °F 59.7 °F 29.9 in Calm     99% 0 in 0 W/m2
10:08 59.9 °F 59.5 °F 29.9 in Calm     99% 0 in 0 W/m2
10:14 59.9 °F 59.5 °F 29.9 in Calm     99% 0 in 0 W/m2
10:20 59.7 °F 59.5 °F 29.9 in North 2.2 mph 3.1 mph 99% 0 in 0 W/m2
10:26 59.9 °F 59.5 °F 29.9 in Calm   3.1 mph 99% 0 in 0 W/m2
10:32 60.1 °F 59.7 °F 29.9 in Calm   3.1 mph 99% 0 in 0 W/m2
10:38 60.3 °F 60.1 °F 29.9 in Calm     99% 0 in 0 W/m2
10:44 60.3 °F 60.1 °F 29.9 in Calm     99% 0 in 0 W/m2
10:50 60.3 °F 60.1 °F 29.9 in Calm     99% 0 in 0 W/m2
10:56 60.4 °F 60.3 °F 29.9 in Calm     99% 0 in 0 W/m2
11:02 60.6 °F 60.4 °F 29.9 in Calm     99% 0 in 0 W/m2
11:08 60.4 °F 60.3 °F 29.9 in Calm     99% 0 in 0 W/m2
11:14 60.4 °F 60.3 °F 29.9 in Calm     99% 0 in 0 W/m2
11:20 60.4 °F 60.3 °F 29.9 in Calm     99% 0 in 0 W/m2
11:26 60.4 °F 60.3 °F 29.9 in Calm     99% 0 in 0 W/m2
11:32 60.4 °F 60.3 °F 29.9 in Calm     99% 0 in 0 W/m2
11:38 60.4 °F 60.3 °F 29.9 in Calm     99% 0 in 0 W/m2
11:44 60.4 °F 60.3 °F 29.9 in Calm     99% 0 in 0 W/m2
11:50 60.6 °F 60.4 °F 29.9 in Calm     99% 0 in 0 W/m2
11:56 60.4 °F 60.3 °F 29.9 in Calm     99% 0 in 0 W/m2
12:02 60.4 °F 60.3 °F 29.9 in Calm     99% 0 in 0 W/m2
12:08 60.4 °F 60.3 °F 29.9 in Calm     99% 0 in 0 W/m2
12:14 60.4 °F 60.3 °F 29.9 in Calm     99% 0 in 0 W/m2
12:20 60.4 °F 60.3 °F 29.9 in Calm     99% 0 in 0 W/m2
12:26 60.4 °F 60.3 °F 29.9 in Calm     99% 0 in 0 W/m2
12:32 60.3 °F 60.1 °F 29.9 in Calm     99% 0 in 0 W/m2
12:38 60.3 °F 60.1 °F 29.9 in Calm     99% 0 in 0 W/m2
12:44 60.3 °F 60.1 °F 29.9 in Calm     99% 0 in 0 W/m2
12:50 60.3 °F 60.1 °F 29.9 in Calm     99% 0 in 0 W/m2
12:56 60.3 °F 60.1 °F 29.9 in Calm     99% 0 in 0 W/m2
13:02 60.3 °F 60.1 °F 29.9 in Calm     99% 0 in 0 W/m2
13:08 60.3 °F 60.1 °F 29.9 in Calm     99% 0 in 0 W/m2
13:14 60.3 °F 60.1 °F 29.9 in Calm     99% 0 in 0 W/m2
13:20 60.3 °F 60.1 °F 29.9 in Calm     99% 0.01 in 0 W/m2
13:26 60.4 °F 60.3 °F 29.9 in Calm     99% 0.01 in 0 W/m2
13:32 60.4 °F 60.3 °F 29.9 in Calm     99% 0.02 in 0 W/m2
13:38 60.4 °F 60.3 °F 29.9 in Calm     99% 0.04 in 0 W/m2
13:44 60.3 °F 60.1 °F 29.9 in Calm     99% 0.04 in 0 W/m2
13:50 60.4 °F 60.3 °F 29.9 in Calm     99% 0.04 in 0 W/m2
13:56 60.4 °F 60.3 °F 29.9 in Calm     99% 0.05 in 0 W/m2
14:02 60.4 °F 60.3 °F 29.9 in Calm     99% 0.06 in 0 W/m2
14:08 60.4 °F 60.3 °F 29.8 in Calm     99% 0.06 in 0 W/m2
14:14 60.4 °F 60.3 °F 29.9 in Calm     99% 0.07 in 0 W/m2
14:20 60.4 °F 60.3 °F 29.9 in Calm     99% 0.06 in 0 W/m2
14:26 60.4 °F 60.3 °F 29.8 in Calm     99% 0.06 in 0 W/m2
14:32 60.6 °F 60.4 °F 29.9 in North 2.2 mph 3.8 mph 99% 0.05 in 0 W/m2
14:38 60.6 °F 60.4 °F 29.9 in Calm   3.8 mph 99% 0.04 in 0 W/m2
14:44 60.6 °F 60.4 °F 29.8 in Calm   3.1 mph 99% 0.04 in 0 W/m2
14:50 60.6 °F 60.4 °F 29.9 in Calm     99% 0.04 in 0 W/m2
14:56 60.4 °F 60.3 °F 29.8 in Calm     99% 0.02 in 0 W/m2
15:02 60.4 °F 60.3 °F 29.8 in Calm     99% 0.01 in 0 W/m2
15:08 60.4 °F 60.3 °F 29.8 in Calm     99% 0.01 in 1 W/m2
15:14 60.4 °F 60.3 °F 29.8 in Calm     99% 0.02 in 2 W/m2
15:20 60.4 °F 60.3 °F 29.8 in Calm   0.7 mph 99% 0.04 in 4 W/m2
15:26 60.4 °F 60.3 °F 29.8 in Calm   0.7 mph 99% 0.05 in 4 W/m2
15:32 60.6 °F 60.4 °F 29.8 in Calm     99% 0.06 in 6 W/m2
15:38 60.6 °F 60.4 °F 29.8 in Calm     99% 0.07 in 9 W/m2
15:44 60.8 °F 60.3 °F 29.8 in Calm   0.7 mph 98% 0.11 in 23 W/m2
15:50 61.2 °F 60.6 °F 29.8 in Calm   2.2 mph 98% 0.11 in 49 W/m2
15:56 61.2 °F 60.6 °F 29.8 in Calm   0.7 mph 98% 0.11 in 74 W/m2
16:02 61.5 °F 61 °F 29.8 in NNW 0.7 mph 3.8 mph 98% 0.11 in 94 W/m2
16:08 61.9 °F 61.3 °F 29.8 in NW 2.2 mph 3.8 mph 98% 0.11 in 95 W/m2
16:14 61.9 °F 61.3 °F 29.8 in NW 3.8 mph 5.4 mph 98% 0.08 in 129 W/m2
16:20 62.1 °F 61.5 °F 29.8 in NW 1.6 mph 5.4 mph 98% 0.07 in 142 W/m2
16:26 62.4 °F 61.9 °F 29.8 in NW 2.2 mph 5.4 mph 98% 0.06 in 166 W/m2
16:32 63.1 °F 62.2 °F 29.8 in NW 1.6 mph 4.5 mph 97% 0.04 in 176 W/m2
16:38 63.5 °F 62.8 °F 29.8 in Calm   3.8 mph 97% 0.02 in 143 W/m2
16:46 64.2 °F 63.3 °F 29.8 in NW 1.6 mph 3.1 mph 97% 0 in 224 W/m2
16:52 64.8 °F 64.6 °F 29.8 in Calm   3.1 mph 99% 0 in 218 W/m2
16:58 65.3 °F 64.9 °F 29.8 in Calm   3.1 mph 99% 0 in 301 W/m2
17:04 66.4 °F 66 °F 29.8 in Calm   3.8 mph 99% 0 in 279 W/m2
17:10 66 °F 65.8 °F 29.8 in SSW 6 mph 6.9 mph 99% 0.01 in 211 W/m2
17:16 65.3 °F 64.9 °F 29.8 in SW 6 mph 9.8 mph 99% 0.01 in 228 W/m2
17:22 65.1 °F 64.6 °F 29.8 in SW 3.8 mph 9.8 mph 98% 0.01 in 201 W/m2
17:28 65.5 °F 64.6 °F 29.8 in SSW 3.8 mph 8.3 mph 97% 0.01 in 202 W/m2
17:34 65.3 °F 64.2 °F 29.8 in SW 4.5 mph 7.6 mph 96% 0.01 in 218 W/m2
17:40 65.1 °F 64 °F 29.8 in SW 3.1 mph 6.9 mph 96% 0.01 in 223 W/m2
17:46 66 °F 65.1 °F 29.8 in SW 5.4 mph 6.9 mph 97% 0.01 in 234 W/m2
17:52 65.7 °F 64.6 °F 29.8 in SW 5.4 mph 6.9 mph 96% 0.01 in 323 W/m2
17:58 66.6 °F 65.1 °F 29.8 in SW 3.8 mph 6.9 mph 95% 0.01 in 339 W/m2
18:04 66.9 °F 65.1 °F 29.8 in SW 4.5 mph 6.9 mph 94% 0.01 in 306 W/m2
18:10 67.3 °F 65.5 °F 29.8 in SW 4.5 mph 6.9 mph 94% 0 in 200 W/m2
18:16 66.9 °F 64.9 °F 29.8 in SW 4.5 mph 6.9 mph 93% 0 in 159 W/m2
18:22 66.6 °F 64.6 °F 29.8 in SW 5.4 mph 7.6 mph 93% 0 in 272 W/m2
18:28 66.9 °F 65.1 °F 29.8 in SW 2.2 mph 8.3 mph 94% 0 in 312 W/m2
18:34 67.8 °F 66 °F 29.8 in SW 3.1 mph 8.3 mph 94% 0 in 192 W/m2
18:40 68 °F 65.3 °F 29.8 in SW 3.8 mph 6 mph 91% 0 in 211 W/m2
18:46 68 °F 65.3 °F 29.8 in SSW 5.4 mph 6.9 mph 91% 0 in 138 W/m2
18:52 67.3 °F 64.6 °F 29.8 in SSW 3.8 mph 7.6 mph 91% 0 in 132 W/m2
18:58 66.7 °F 64 °F 29.8 in SW 2.2 mph 7.6 mph 91% 0 in 146 W/m2
19:04 66.6 °F 64.2 °F 29.8 in SW 3.8 mph 7.6 mph 92% 0 in 149 W/m2
19:10 66.7 °F 64.8 °F 29.8 in SW 2.2 mph 6 mph 93% 0 in 144 W/m2
19:16 67.1 °F 64.9 °F 29.8 in SW 3.1 mph 6 mph 93% 0 in 173 W/m2
19:22 67.5 °F 65.5 °F 29.8 in SSW 3.1 mph 4.5 mph 93% 0 in 189 W/m2
19:28 68.2 °F 65.5 °F 29.8 in South 2.2 mph 4.5 mph 91% 0 in 208 W/m2
19:34 68.4 °F 65.3 °F 29.8 in South 3.1 mph 4.5 mph 90% 0 in 179 W/m2
19:40 68.4 °F 64.9 °F 29.8 in South 1.6 mph 4.5 mph 89% 0 in 188 W/m2
19:46 68.7 °F 65.5 °F 29.8 in SSW 2.2 mph 4.5 mph 89% 0 in 188 W/m2
19:52 68.9 °F 65.7 °F 29.8 in SW 3.8 mph 5.4 mph 89% 0 in 184 W/m2
19:58 68.9 °F 65.1 °F 29.8 in SSW 1.6 mph 5.4 mph 88% 0 in 239 W/m2
20:04 69.3 °F 65.3 °F 29.8 in SSW 3.1 mph 4.5 mph 87% 0 in 276 W/m2
20:10 69.3 °F 64.9 °F 29.8 in South 2.2 mph 6.9 mph 86% 0 in 217 W/m2
20:16 69.4 °F 65.5 °F 29.8 in SSW 2.2 mph 6.9 mph 87% 0 in 254 W/m2
20:22 70 °F 65.3 °F 29.8 in SSE 1.6 mph 3.8 mph 85% 0 in 204 W/m2
20:28 69.1 °F 64 °F 29.8 in SSE 3.8 mph 5.4 mph 84% 0 in 247 W/m2
20:34 68.7 °F 64.8 °F 29.8 in South 2.2 mph 5.4 mph 87% 0 in 249 W/m2
20:40 68.7 °F 64.8 °F 29.8 in SSW 2.2 mph 4.5 mph 87% 0 in 207 W/m2
20:46 68.7 °F 65.1 °F 29.8 in SSW 2.2 mph 4.5 mph 88% 0 in 151 W/m2
20:52 68.4 °F 64.9 °F 29.8 in WSW 1.6 mph 3.8 mph 89% 0 in 57 W/m2
20:58 67.6 °F 64.9 °F 29.8 in WNW 6 mph 9.2 mph 91% 0.01 in 53 W/m2
21:04 66.7 °F 64.4 °F 29.8 in NW 3.8 mph 9.2 mph 92% 0.06 in 113 W/m2
21:10 66.7 °F 64.9 °F 29.8 in NW 1.6 mph 6.9 mph 94% 0.06 in 163 W/m2
21:16 67.3 °F 65.5 °F 29.8 in Calm   3.1 mph 94% 0.06 in 189 W/m2
21:22 68 °F 66.2 °F 29.8 in SE 1.6 mph 2.2 mph 94% 0.07 in 322 W/m2
21:28 68.5 °F 66.6 °F 29.8 in SE 1.6 mph 3.1 mph 93% 0.07 in 233 W/m2
21:34 68.5 °F 66.2 °F 29.8 in SSE 0.7 mph 2.2 mph 92% 0.07 in 194 W/m2
21:40 68.2 °F 65.8 °F 29.8 in SSW 2.2 mph 4.5 mph 92% 0.07 in 206 W/m2
21:46 67.6 °F 65.7 °F 29.8 in SSW 1.6 mph 4.5 mph 93% 0.07 in 155 W/m2
21:52 67.3 °F 65.5 °F 29.8 in SSW 0.7 mph 4.5 mph 94% 0.07 in 175 W/m2
21:58 68.2 °F 66 °F 29.8 in Calm   3.8 mph 93% 0.04 in 367 W/m2
22:04 68.7 °F 66.6 °F 29.8 in SE 3.1 mph 3.8 mph 93% 0.01 in 221 W/m2
22:10 68.2 °F 65.8 °F 29.8 in SE 0.7 mph 3.8 mph 92% 0.01 in 55 W/m2
22:16 67.8 °F 66 °F 29.8 in Calm   3.8 mph 94% 0.01 in 24 W/m2
22:22 67.5 °F 65.7 °F 29.8 in SE 0.7 mph 3.1 mph 94% 0.04 in 37 W/m2
22:28 66.9 °F 65.1 °F 29.8 in SSE 0.7 mph 3.8 mph 94% 0.06 in 34 W/m2
22:34 66.2 °F 64.8 °F 29.8 in Calm   3.8 mph 95% 0.12 in 40 W/m2
22:40 66 °F 64.9 °F 29.8 in Calm   1.6 mph 96% 0.15 in 36 W/m2
22:46 65.8 °F 64.8 °F 29.8 in WNW 2.2 mph 3.8 mph 96% 0.17 in 21 W/m2
22:52 64.8 °F 63.7 °F 29.8 in Calm   3.8 mph 96% 0.19 in 18 W/m2
22:58 64 °F 62.6 °F 29.8 in NE 0.7 mph 2.2 mph 95% 0.21 in 17 W/m2
23:04 63.7 °F 62.2 °F 29.8 in ESE 1.6 mph 3.1 mph 95% 0.24 in 14 W/m2
23:10 63.5 °F 62.1 °F 29.8 in NNE 1.6 mph 3.8 mph 95% 0.24 in 12 W/m2
23:16 63.3 °F 61.9 °F 29.8 in Calm   3.8 mph 95% 0.25 in 13 W/m2
23:22 63.1 °F 62.1 °F 29.8 in Calm   0.7 mph 96% 0.24 in 13 W/m2
23:28 63 °F 61.9 °F 29.8 in Calm   1.6 mph 96% 0.22 in 13 W/m2
23:34 63 °F 61.9 °F 29.8 in Calm   1.6 mph 96% 0.17 in 13 W/m2
23:40 63.1 °F 62.1 °F 29.8 in Calm   1.6 mph 96% 0.14 in 14 W/m2
23:46 63.1 °F 62.1 °F 29.8 in Calm   3.8 mph 96% 0.14 in 17 W/m2
23:52 63.1 °F 62.2 °F 29.8 in NE 2.2 mph 3.8 mph 97% 0.12 in 18 W/m2
23:58 63.1 °F 62.2 °F 29.8 in NE 0.7 mph 3.8 mph 97% 0.08 in 18 W/m2
Northern Hawkes Bay. New Zealand Historic Data
Compliments of Weather Underground - 2 mb